Autopride — CQQE — position and weather

sailwx.info

Track history (hours):
 
Tides and Currents Weather Stations Pressure Air Temp Water Temp Dewpoint Dewpoint Depression Visibility Wind Speed Wind Dir Waves Ship Positions

Autopride

Last reported at 2014-Sep-01 11:20 UTC. Time now 2014-Sep-02 21:21 UTC.
Position N 33°24' E 014°35'.

Length 125 m; draft 4.8 m.

Type: Cargo ship. MMSI: 255801560.

Date/timePositionNaut miles runAvg speedWind from/ knotsBaromVisibWave heightAir tempDewpointWater temp
2014-Sep-01 11:20N 33°24' E 014°35'911.9
2014-Sep-01 10:33N 33°32' E 014°29'5111.8
2014-Sep-01 06:16N 34°14' E 013°54'811.5
2014-Sep-01 05:33N 34°20' E 013°48'1211.8
2014-Sep-01 04:32N 34°30' E 013°40'1211.8
2014-Sep-01 03:33N 34°40' E 013°32'1212.0
2014-Sep-01 02:33N 34°50' E 013°24'1211.8
2014-Sep-01 01:33N 34°59' E 013°16'1212.0
2014-Sep-01 00:33N 35°09' E 013°08'1211.9
2014-Aug-31 23:33N 35°19' E 012°59'1111.5
2014-Aug-31 22:33N 35°28' E 012°51'1111.3
2014-Aug-31 21:33N 35°38' E 012°44'1111.2
2014-Aug-31 20:33N 35°47' E 012°36'1111.2
2014-Aug-31 19:33N 35°56' E 012°28'1111.3
2014-Aug-31 18:33N 36°06' E 012°20'1211.8
2014-Aug-31 17:33N 36°15' E 012°12'1212.1
2014-Aug-31 16:33N 36°25' E 012°03'1212.0
2014-Aug-31 15:33N 36°35' E 011°55'1211.6
2014-Aug-31 14:33N 36°45' E 011°47'1211.8
2014-Aug-31 13:33N 36°54' E 011°38'1211.9
2014-Aug-31 12:33N 37°04' E 011°30'1311.7
2014-Aug-31 11:28N 37°15' E 011°21'1111.6
2014-Aug-31 10:33N 37°21' E 011°10'1311.4
2014-Aug-31 09:26N 37°25' E 010°55'1011.4
2014-Aug-31 08:33N 37°27' E 010°43'1211.5
2014-Aug-31 07:33N 37°30' E 010°29'1111.4
2014-Aug-31 06:33N 37°33' E 010°15'1211.7
2014-Aug-31 05:33N 37°33' E 010°00'1212.0
2014-Aug-31 04:32N 37°30' E 009°45'1212.0
2014-Aug-31 03:33N 37°27' E 009°31'1212.3
2014-Aug-31 02:33N 37°23' E 009°16'1212.3
2014-Aug-31 01:32N 37°20' E 009°01'1212.1
2014-Aug-31 00:33N 37°19' E 008°46'1211.8
2014-Aug-30 23:33N 37°19' E 008°31'1311.8
2014-Aug-30 22:30N 37°19' E 008°15'1111.9
2014-Aug-30 21:33N 37°18' E 008°01'1411.5
2014-Aug-30 20:18N 37°17' E 007°43'2111.6
2014-Aug-30 18:28N 37°17' E 007°16'1111.6
2014-Aug-30 17:33N 37°16' E 007°03'1111.4
2014-Aug-30 16:33N 37°16' E 006°49'1312.3
2014-Aug-30 15:30N 37°15' E 006°32'1410.7
2014-Aug-30 14:12N 37°07' E 006°18'1213.5
2014-Aug-30 13:19N 36°59' E 006°07'1210.4
2014-Aug-30 12:08N 36°51' E 005°56'2 0.7
2014-Aug-30 09:15N 36°49' E 005°54'0 0.0
2014-Aug-30 07:30N 36°49' E 005°54'0 0.0
2014-Aug-30 03:30N 36°49' E 005°54'0 0.0
2014-Aug-30 02:33N 36°49' E 005°54'0 0.0
2014-Aug-29 23:18N 36°49' E 005°54'0 0.0
2014-Aug-29 22:24N 36°49' E 005°54'0 0.0
2014-Aug-29 18:22N 36°49' E 005°54'0 0.0
2014-Aug-29 15:12N 36°49' E 005°54'0 0.0
2014-Aug-29 14:30N 36°49' E 005°54'0 0.0
2014-Aug-29 08:24N 36°49' E 005°54'0 0.2
2014-Aug-29 07:30N 36°49' E 005°54'9 8.4
2014-Aug-29 06:23N 36°56' E 006°02'3510.9
2014-Aug-29 03:11N 37°16' E 006°38'711.2
2014-Aug-29 02:33N 37°18' E 006°46'2811.7
2014-Aug-29 00:07N 37°24' E 007°21'4712.0
2014-Aug-28 20:12N 37°34' E 008°19'812.1
2014-Aug-28 19:33N 37°35' E 008°29'1212.5
2014-Aug-28 18:33N 37°38' E 008°44'1211.7
2014-Aug-28 17:33N 37°42' E 008°58'1111.2
2014-Aug-28 16:33N 37°44' E 009°12'1111.2
2014-Aug-28 15:33N 37°45' E 009°26'1111.3
2014-Aug-28 14:33N 37°48' E 009°40'1111.1
2014-Aug-28 13:33N 37°50' E 009°54'1110.9
2014-Aug-28 12:33N 37°52' E 010°07'1111.3
2014-Aug-28 11:33N 37°55' E 010°21'8411.3
2014-Aug-28 04:09N 38°13' E 012°05'710.6
2014-Aug-28 03:29N 38°14' E 012°14'8510.7
2014-Aug-27 19:33N 38°21' E 014°02'1210.9
2014-Aug-27 18:27N 38°21' E 014°18'1010.9
2014-Aug-27 17:33N 38°21' E 014°30'1110.9
2014-Aug-27 16:32N 38°20' E 014°44'1111.0
2014-Aug-27 15:34N 38°20' E 014°58'1111.1
2014-Aug-27 14:32N 38°21' E 015°12'2612.1
2014-Aug-27 12:24N 38°26' E 015°45'  
Track history (hours):
 
Tides and Currents Weather Stations Pressure Air Temp Water Temp Dewpoint Dewpoint Depression Visibility Wind Speed Wind Dir Waves Ship Positions

Autopride

Last reported at 2014-Sep-01 11:20 UTC. Time now 2014-Sep-02 21:21 UTC.
Position N 33°24' E 014°35'.

Length 125 m; draft 4.8 m.

Type: Cargo ship. MMSI: 255801560.

Date/timePositionNaut miles runAvg speedWind from/ knotsBaromVisibWave heightAir tempDewpointWater temp
2014-Sep-01 11:20N 33°24' E 014°35'911.9
2014-Sep-01 10:33N 33°32' E 014°29'5111.8
2014-Sep-01 06:16N 34°14' E 013°54'811.5
2014-Sep-01 05:33N 34°20' E 013°48'1211.8
2014-Sep-01 04:32N 34°30' E 013°40'1211.8
2014-Sep-01 03:33N 34°40' E 013°32'1212.0
2014-Sep-01 02:33N 34°50' E 013°24'1211.8
2014-Sep-01 01:33N 34°59' E 013°16'1212.0
2014-Sep-01 00:33N 35°09' E 013°08'1211.9
2014-Aug-31 23:33N 35°19' E 012°59'1111.5
2014-Aug-31 22:33N 35°28' E 012°51'1111.3
2014-Aug-31 21:33N 35°38' E 012°44'1111.2
2014-Aug-31 20:33N 35°47' E 012°36'1111.2
2014-Aug-31 19:33N 35°56' E 012°28'1111.3
2014-Aug-31 18:33N 36°06' E 012°20'1211.8
2014-Aug-31 17:33N 36°15' E 012°12'1212.1
2014-Aug-31 16:33N 36°25' E 012°03'1212.0
2014-Aug-31 15:33N 36°35' E 011°55'1211.6
2014-Aug-31 14:33N 36°45' E 011°47'1211.8
2014-Aug-31 13:33N 36°54' E 011°38'1211.9
2014-Aug-31 12:33N 37°04' E 011°30'1311.7
2014-Aug-31 11:28N 37°15' E 011°21'1111.6
2014-Aug-31 10:33N 37°21' E 011°10'1311.4
2014-Aug-31 09:26N 37°25' E 010°55'1011.4
2014-Aug-31 08:33N 37°27' E 010°43'1211.5
2014-Aug-31 07:33N 37°30' E 010°29'1111.4
2014-Aug-31 06:33N 37°33' E 010°15'1211.7
2014-Aug-31 05:33N 37°33' E 010°00'1212.0
2014-Aug-31 04:32N 37°30' E 009°45'1212.0
2014-Aug-31 03:33N 37°27' E 009°31'1212.3
2014-Aug-31 02:33N 37°23' E 009°16'1212.3
2014-Aug-31 01:32N 37°20' E 009°01'1212.1
2014-Aug-31 00:33N 37°19' E 008°46'1211.8
2014-Aug-30 23:33N 37°19' E 008°31'1311.8
2014-Aug-30 22:30N 37°19' E 008°15'1111.9
2014-Aug-30 21:33N 37°18' E 008°01'1411.5
2014-Aug-30 20:18N 37°17' E 007°43'2111.6
2014-Aug-30 18:28N 37°17' E 007°16'1111.6
2014-Aug-30 17:33N 37°16' E 007°03'1111.4
2014-Aug-30 16:33N 37°16' E 006°49'1312.3
2014-Aug-30 15:30N 37°15' E 006°32'1410.7
2014-Aug-30 14:12N 37°07' E 006°18'1213.5
2014-Aug-30 13:19N 36°59' E 006°07'1210.4
2014-Aug-30 12:08N 36°51' E 005°56'2 0.7
2014-Aug-30 09:15N 36°49' E 005°54'0 0.0
2014-Aug-30 07:30N 36°49' E 005°54'0 0.0
2014-Aug-30 03:30N 36°49' E 005°54'0 0.0
2014-Aug-30 02:33N 36°49' E 005°54'0 0.0
2014-Aug-29 23:18N 36°49' E 005°54'0 0.0
2014-Aug-29 22:24N 36°49' E 005°54'0 0.0
2014-Aug-29 18:22N 36°49' E 005°54'0 0.0
2014-Aug-29 15:12N 36°49' E 005°54'0 0.0
2014-Aug-29 14:30N 36°49' E 005°54'0 0.0
2014-Aug-29 08:24N 36°49' E 005°54'0 0.2
2014-Aug-29 07:30N 36°49' E 005°54'9 8.4
2014-Aug-29 06:23N 36°56' E 006°02'3510.9
2014-Aug-29 03:11N 37°16' E 006°38'711.2
2014-Aug-29 02:33N 37°18' E 006°46'2811.7
2014-Aug-29 00:07N 37°24' E 007°21'4712.0
2014-Aug-28 20:12N 37°34' E 008°19'812.1
2014-Aug-28 19:33N 37°35' E 008°29'1212.5
2014-Aug-28 18:33N 37°38' E 008°44'1211.7
2014-Aug-28 17:33N 37°42' E 008°58'1111.2
2014-Aug-28 16:33N 37°44' E 009°12'1111.2
2014-Aug-28 15:33N 37°45' E 009°26'1111.3
2014-Aug-28 14:33N 37°48' E 009°40'1111.1
2014-Aug-28 13:33N 37°50' E 009°54'1110.9
2014-Aug-28 12:33N 37°52' E 010°07'1111.3
2014-Aug-28 11:33N 37°55' E 010°21'8411.3
2014-Aug-28 04:09N 38°13' E 012°05'710.6
2014-Aug-28 03:29N 38°14' E 012°14'8510.7
2014-Aug-27 19:33N 38°21' E 014°02'1210.9
2014-Aug-27 18:27N 38°21' E 014°18'1010.9
2014-Aug-27 17:33N 38°21' E 014°30'1110.9
2014-Aug-27 16:32N 38°20' E 014°44'1111.0
2014-Aug-27 15:34N 38°20' E 014°58'1111.1
2014-Aug-27 14:32N 38°21' E 015°12'2612.1
2014-Aug-27 12:24N 38°26' E 015°45'  

Dump ship's entire track history